Time;durP1;ratioP1;P1;durP2;ratioP2;P2;SDS_P1;SDS_P2;PMS_P1;PMS_P2;Temp;Humidity;BMP_temperature;BMP_pressure;BME280_temperature;BME280_humidity;BME280_pressure;Samples;Min_cycle;Max_cycle;Signal;HPM_P1;HPM_P2
2023/01/16 00:00:12;;;;;;;;;19.75;19.25;;;;;12.63;42.13;98849.66;5132326;27;8902;-76
2023/01/16 00:03:01;;;;;;;;;42.25;37.50;;;;;12.67;42.11;98838.25;5132056;27;8822;-79
2023/01/16 00:05:30;;;;;;;;;41.20;36.80;;;;;12.77;42.30;98833.69;5132152;27;8876;-78
2023/01/16 00:07:59;;;;;;;;;44.50;39.00;;;;;12.80;41.43;98828.41;5095981;27;8849;-79
2023/01/16 00:10:27;;;;;;;;;39.00;33.25;;;;;12.80;41.54;98832.78;5121824;27;8837;-77
2023/01/16 00:12:56;;;;;;;;;38.75;37.00;;;;;12.71;41.40;98822.50;5117652;27;8841;-77
2023/01/16 00:15:26;;;;;;;;;38.25;34.50;;;;;12.65;41.73;98813.88;5136800;27;8871;-75
2023/01/16 00:17:55;;;;;;;;;45.75;39.00;;;;;12.60;42.37;98818.34;5105095;27;8851;-79
2023/01/16 00:20:24;;;;;;;;;47.75;39.25;;;;;12.67;42.29;98817.31;5118178;27;8836;-78
2023/01/16 00:22:53;;;;;;;;;44.25;35.00;;;;;12.76;41.69;98810.16;5154837;27;8993;-81
2023/01/16 00:25:22;;;;;;;;;37.75;33.00;;;;;12.84;41.70;98808.25;5121077;27;8878;-78
2023/01/16 00:27:51;;;;;;;;;41.25;35.50;;;;;12.90;41.75;98800.28;5163383;27;8871;-78
2023/01/16 00:30:20;;;;;;;;;41.25;37.25;;;;;12.93;41.00;98802.84;5128596;27;8832;-79
2023/01/16 00:32:50;;;;;;;;;42.75;37.00;;;;;13.04;41.21;98800.84;5144675;27;8818;-76
2023/01/16 00:35:19;;;;;;;;;43.00;37.00;;;;;13.03;40.81;98809.56;5118088;27;8890;-77
2023/01/16 00:37:48;;;;;;;;;35.00;31.00;;;;;13.11;41.15;98804.16;5115074;27;8900;-78
2023/01/16 00:40:17;;;;;;;;;41.75;36.00;;;;;13.11;41.36;98795.44;5133426;27;8849;-78
2023/01/16 00:42:46;;;;;;;;;38.00;28.25;;;;;13.10;41.21;98791.97;5104451;27;8845;-80
2023/01/16 00:45:14;;;;;;;;;43.25;39.00;;;;;13.06;40.62;98785.06;5046111;27;8834;-79
2023/01/16 00:47:43;;;;;;;;;32.25;29.50;;;;;13.03;41.14;98796.47;5131969;27;8837;-81
2023/01/16 00:50:14;;;;;;;;;44.25;37.75;;;;;12.87;41.34;98789.84;5131933;27;9081;-76
2023/01/16 00:52:43;;;;;;;;;40.50;37.50;;;;;12.94;41.56;98796.69;5130607;27;8968;-78
2023/01/16 00:55:11;;;;;;;;;43.75;38.50;;;;;12.98;41.00;98785.25;5131627;27;8845;-77
2023/01/16 00:57:40;;;;;;;;;38.40;35.80;;;;;13.04;40.92;98784.25;5147679;27;8885;-78
2023/01/16 01:00:10;;;;;;;;;38.20;33.60;;;;;13.07;41.15;98779.81;5096535;27;8829;-77
2023/01/16 01:02:39;;;;;;;;;36.75;33.75;;;;;13.15;41.19;98777.00;5131535;27;8845;-78
2023/01/16 01:05:09;;;;;;;;;41.25;37.75;;;;;13.17;40.61;98763.88;5107911;28;8852;-80
2023/01/16 01:07:39;;;;;;;;;38.75;36.50;;;;;13.20;40.71;98756.81;5058026;28;8894;-77
2023/01/16 01:10:08;;;;;;;;;39.50;37.00;;;;;13.25;41.17;98754.97;5108135;28;9691;-77
2023/01/16 01:12:37;;;;;;;;;44.50;39.00;;;;;13.30;41.05;98756.59;5067255;28;8868;-80
2023/01/16 01:15:07;;;;;;;;;43.25;36.75;;;;;13.25;40.55;98749.72;5085265;28;8865;-76
2023/01/16 01:17:36;;;;;;;;;43.25;39.00;;;;;13.20;40.93;98748.97;5054590;28;8849;-77
2023/01/16 01:20:05;;;;;;;;;43.75;37.75;;;;;13.02;40.63;98745.06;5070651;28;8846;-78
2023/01/16 01:22:34;;;;;;;;;41.75;36.00;;;;;12.94;40.86;98741.72;5053571;28;8834;-78
2023/01/16 01:25:04;;;;;;;;;30.00;29.00;;;;;13.10;41.34;98739.63;5087255;28;8850;-76
2023/01/16 01:27:33;;;;;;;;;39.75;36.00;;;;;13.12;40.90;98743.06;5004678;28;8841;-80
2023/01/16 01:30:02;;;;;;;;;41.25;34.75;;;;;13.13;40.62;98736.06;5065977;28;8951;-78
2023/01/16 01:32:31;;;;;;;;;40.25;35.75;;;;;12.90;40.52;98724.38;5067237;28;8995;-77
2023/01/16 01:35:00;;;;;;;;;40.00;34.50;;;;;13.05;40.81;98726.63;5050542;28;8847;-79
2023/01/16 01:37:29;;;;;;;;;37.75;37.25;;;;;13.16;41.13;98721.16;5049974;28;8836;-78
2023/01/16 01:39:58;;;;;;;;;40.75;39.25;;;;;13.25;41.14;98720.03;5050398;28;8863;-79
2023/01/16 01:42:43;;;;;;;;;44.00;39.25;;;;;13.30;40.92;98714.72;5050079;28;8852;-81
2023/01/16 01:45:16;;;;;;;;;42.25;37.50;;;;;13.38;40.90;98716.28;5035549;28;8869;-80
2023/01/16 01:47:54;;;;;;;;;35.50;33.50;;;;;13.45;41.23;98719.59;5084332;28;8833;-79
2023/01/16 01:50:32;;;;;;;;;37.75;36.00;;;;;13.54;41.22;98714.13;5101599;27;8865;-78
2023/01/16 01:53:07;;;;;;;;;46.25;41.75;;;;;13.53;40.32;98714.16;5106350;27;8847;-79
2023/01/16 01:55:37;;;;;;;;;41.60;37.80;;;;;13.48;40.40;98719.53;5082790;27;8851;-77
2023/01/16 01:58:08;;;;;;;;;42.50;35.50;;;;;13.52;40.17;98717.69;5150944;27;8896;-77
2023/01/16 02:00:37;;;;;;;;;39.25;37.50;;;;;13.54;40.16;98711.50;5150783;27;10183;-80
2023/01/16 02:03:10;;;;;;;;;34.00;34.00;;;;;13.65;40.46;98698.13;5082877;27;8857;-75
2023/01/16 02:05:44;;;;;;;;;46.00;37.50;;;;;13.59;39.95;98699.16;5128535;27;8867;-79
2023/01/16 02:08:15;;;;;;;;;38.25;36.50;;;;;13.59;40.51;98688.66;5128691;27;8849;-77
2023/01/16 02:10:49;;;;;;;;;36.25;34.50;;;;;13.57;40.32;98694.84;5133944;27;8866;-76
2023/01/16 02:13:19;;;;;;;;;42.00;36.00;;;;;13.47;40.40;98688.97;5098764;27;8873;-79
2023/01/16 02:21:36;;;;;;;;;39.40;34.00;;;;;13.60;40.40;98679.03;5144839;27;8886;-78
2023/01/16 02:24:38;;;;;;;;;40.60;34.40;;;;;13.71;40.47;98679.63;5111417;27;9582;-79
2023/01/16 02:27:23;;;;;;;;;41.25;37.00;;;;;13.72;40.43;98675.22;5128531;27;8880;-77
2023/01/16 02:30:15;;;;;;;;;38.50;35.25;;;;;13.76;40.21;98671.63;5082865;28;8853;-77
2023/01/16 02:33:04;;;;;;;;;37.25;31.75;;;;;13.77;40.62;98662.88;5067036;28;8894;-76
2023/01/16 02:35:50;;;;;;;;;37.00;33.00;;;;;13.69;40.60;98655.22;5076367;28;8856;-78
2023/01/16 02:38:27;;;;;;;;;39.50;38.25;;;;;13.52;39.98;98657.44;5085631;28;9038;-76
2023/01/16 02:41:03;;;;;;;;;38.80;36.00;;;;;13.46;40.03;98658.47;5086216;28;8853;-75
2023/01/16 02:43:37;;;;;;;;;39.00;32.80;;;;;13.33;40.35;98650.06;5068696;28;8887;-76
2023/01/16 02:46:15;;;;;;;;;33.40;31.20;;;;;13.22;40.46;98639.84;5048776;28;8839;-75
2023/01/16 02:48:57;;;;;;;;;37.60;32.20;;;;;13.14;40.40;98640.94;5077612;28;9803;-78
2023/01/16 02:51:35;;;;;;;;;31.60;27.80;;;;;13.11;41.29;98639.25;5084689;28;9003;-75
2023/01/16 02:54:11;;;;;;;;;37.25;33.00;;;;;12.97;40.65;98639.59;5028612;28;8874;-75
2023/01/16 02:56:46;;;;;;;;;29.80;27.20;;;;;13.08;40.72;98641.97;5045257;28;9065;-79
2023/01/16 02:59:17;;;;;;;;;32.40;31.80;;;;;13.04;40.95;98635.06;5028873;28;8924;-77
2023/01/16 03:01:48;;;;;;;;;36.40;30.80;;;;;12.98;40.45;98630.84;5059176;28;8834;-79
2023/01/16 03:04:43;;;;;;;;;34.80;31.00;;;;;13.06;40.37;98626.28;5085525;28;8890;-75
2023/01/16 03:07:57;;;;;;;;;36.25;33.75;;;;;12.95;40.52;98620.47;5088361;28;8878;-80
2023/01/16 03:10:43;;;;;;;;;37.40;35.40;;;;;12.94;40.46;98610.88;5025293;28;8956;-77
2023/01/16 03:13:19;;;;;;;;;35.60;30.20;;;;;12.85;40.94;98609.38;5025109;28;8844;-75
2023/01/16 03:15:58;;;;;;;;;33.00;32.60;;;;;12.86;40.71;98605.00;5036778;28;8991;-80
2023/01/16 03:18:36;;;;;;;;;39.80;35.80;;;;;12.92;40.46;98594.38;5045077;28;9571;-75
2023/01/16 03:21:11;;;;;;;;;38.20;33.80;;;;;12.92;40.45;98590.91;5044447;28;8911;-78
2023/01/16 03:23:51;;;;;;;;;41.00;35.50;;;;;12.68;41.39;98588.88;4991166;28;8848;-75
2023/01/16 03:26:28;;;;;;;;;33.50;32.25;;;;;12.68;41.42;98586.25;5062437;28;8856;-77
2023/01/16 03:29:09;;;;;;;;;39.00;32.50;;;;;12.78;41.00;98583.38;5048591;28;8872;-78
2023/01/16 03:31:47;;;;;;;;;40.75;36.75;;;;;12.71;41.50;98577.47;5080684;28;8868;-78
2023/01/16 03:34:23;;;;;;;;;38.25;33.75;;;;;12.68;40.93;98570.56;5086892;28;8853;-76
2023/01/16 03:37:00;;;;;;;;;36.00;32.40;;;;;12.67;40.84;98565.34;5087963;28;8838;-74
2023/01/16 03:39:34;;;;;;;;;33.75;31.75;;;;;12.60;40.79;98554.19;5071536;28;8868;-80
2023/01/16 03:42:10;;;;;;;;;34.80;28.60;;;;;12.64;41.37;98560.19;5084508;28;8880;-79
2023/01/16 03:44:43;;;;;;;;;32.40;32.00;;;;;12.53;41.09;98557.84;5068768;28;8907;-77
2023/01/16 03:47:20;;;;;;;;;42.75;36.50;;;;;12.45;41.41;98557.16;5090866;27;8869;-79
2023/01/16 03:49:53;;;;;;;;;39.25;35.25;;;;;12.33;42.62;98547.03;5130779;27;8838;-78
2023/01/16 03:52:32;;;;;;;;;42.80;36.40;;;;;12.21;42.06;98541.19;5121943;27;8845;-74
2023/01/16 03:55:08;;;;;;;;;35.75;32.00;;;;;12.09;43.03;98539.69;5117106;27;8966;-75
2023/01/16 03:57:41;;;;;;;;;42.25;35.75;;;;;12.10;42.65;98543.19;5130471;27;8913;-79
2023/01/16 04:00:13;;;;;;;;;38.75;35.75;;;;;11.71;44.01;98530.94;5130390;27;9600;-78
2023/01/16 04:02:48;;;;;;;;;37.00;30.50;;;;;11.84;42.81;98533.28;5095642;27;8881;-78
2023/01/16 04:05:19;;;;;;;;;39.50;33.50;;;;;11.68;43.51;98527.50;5110771;27;8866;-76
2023/01/16 04:07:57;;;;;;;;;36.80;36.20;;;;;11.66;43.86;98522.34;5130478;27;8835;-76
2023/01/16 04:10:29;;;;;;;;;33.80;31.60;;;;;11.61;44.11;98518.97;5129414;27;8877;-78
2023/01/16 04:13:02;;;;;;;;;42.00;35.50;;;;;11.73;43.03;98517.00;5130896;27;8851;-77
2023/01/16 04:15:35;;;;;;;;;43.00;37.00;;;;;11.72;43.80;98513.53;5088358;28;8845;-76
2023/01/16 04:18:04;;;;;;;;;37.25;35.75;;;;;11.71;42.52;98515.25;5067344;28;8861;-75
2023/01/16 04:20:35;;;;;;;;;29.40;26.60;;;;;11.76;42.74;98512.56;5089066;28;8904;-78
2023/01/16 04:23:05;;;;;;;;;41.25;37.00;;;;;11.83;42.39;98510.66;5088833;28;8873;-79
2023/01/16 04:25:34;;;;;;;;;41.50;37.75;;;;;11.89;42.19;98502.69;5096930;28;8838;-79
2023/01/16 04:28:02;;;;;;;;;37.50;34.00;;;;;11.95;42.03;98499.13;5091706;28;9018;-78
2023/01/16 04:30:31;;;;;;;;;46.25;37.50;;;;;12.02;41.98;98503.28;5091473;28;8848;-77
2023/01/16 04:33:01;;;;;;;;;36.25;34.25;;;;;12.05;41.57;98496.25;5091803;28;8847;-77
2023/01/16 04:35:31;;;;;;;;;43.00;36.80;;;;;11.90;42.12;98494.00;5107273;28;8866;-78
2023/01/16 04:38:00;;;;;;;;;30.25;29.75;;;;;11.81;42.23;98487.19;5108898;28;9672;-75
2023/01/16 04:40:30;;;;;;;;;31.00;30.00;;;;;11.88;42.57;98498.34;5074549;28;8855;-77
2023/01/16 04:42:59;;;;;;;;;34.00;30.40;;;;;11.63;42.29;98505.88;5108603;28;8931;-78
2023/01/16 04:45:28;;;;;;;;;38.00;37.25;;;;;11.54;42.95;98500.84;5054796;28;8884;-79
2023/01/16 04:47:56;;;;;;;;;37.50;34.25;;;;;11.30;42.80;98496.13;5087885;28;9040;-79
2023/01/16 04:50:26;;;;;;;;;36.00;34.25;;;;;11.28;42.41;98495.25;5087520;28;8877;-79
2023/01/16 04:52:54;;;;;;;;;35.20;33.80;;;;;11.31;43.00;98476.94;5102664;28;8865;-78
2023/01/16 04:55:24;;;;;;;;;36.60;33.40;;;;;11.36;42.34;98476.00;5042301;28;8953;-78
2023/01/16 04:57:54;;;;;;;;;31.60;31.00;;;;;11.19;43.21;98472.00;5111042;28;8853;-80
2023/01/16 05:00:23;;;;;;;;;37.60;32.60;;;;;10.90;43.57;98468.19;5109640;28;8904;-78
2023/01/16 05:02:53;;;;;;;;;29.40;27.80;;;;;11.26;42.80;98459.66;5109982;27;8868;-79
2023/01/16 05:05:22;;;;;;;;;32.20;31.20;;;;;11.36;41.77;98455.09;5062033;27;8854;-79
2023/01/16 05:08:15;;;;;;;;;25.60;25.00;;;;;11.51;42.12;98447.81;5126737;27;8841;-77
2023/01/16 05:10:40;;;;;;;;;40.80;33.60;;;;;11.57;41.49;98453.78;5092872;28;8849;-78
2023/01/16 05:13:10;;;;;;;;;33.50;27.00;;;;;11.46;41.48;98456.66;5092415;28;9656;-79
2023/01/16 05:15:39;;;;;;;;;33.20;29.00;;;;;11.56;40.83;98449.47;5126635;27;8841;-76
2023/01/16 05:18:07;;;;;;;;;22.20;20.60;;;;;11.57;40.74;98445.94;5110508;28;9655;-78
2023/01/16 05:20:36;;;;;;;;;21.40;20.00;;;;;11.56;40.22;98433.81;5075030;28;8929;-79
2023/01/16 05:23:05;;;;;;;;;24.80;21.80;;;;;11.62;40.02;98434.50;5125064;27;8855;-78
2023/01/16 05:25:34;;;;;;;;;15.80;15.60;;;;;11.54;40.00;98420.78;5109760;28;8925;-79
2023/01/16 05:28:03;;;;;;;;;36.75;32.25;;;;;11.49;40.36;98406.97;5057913;28;8881;-77
2023/01/16 05:30:33;;;;;;;;;41.50;38.00;;;;;11.29;40.51;98418.72;5123446;27;8853;-77
2023/01/16 05:33:04;;;;;;;;;27.80;23.20;;;;;11.32;40.64;98416.03;5110445;28;8859;-79
2023/01/16 05:35:33;;;;;;;;;27.60;21.60;;;;;11.26;40.06;98428.34;5108501;28;8844;-77
2023/01/16 05:38:02;;;;;;;;;30.80;27.60;;;;;11.28;40.29;98439.63;5090897;27;8868;-76
2023/01/16 05:40:31;;;;;;;;;29.20;24.60;;;;;11.36;40.09;98434.22;5092786;28;8954;-78
2023/01/16 05:42:59;;;;;;;;;31.20;30.00;;;;;11.20;41.15;98425.88;5115372;28;8836;-77
2023/01/16 05:45:28;;;;;;;;;34.40;33.20;;;;;11.00;42.05;98424.56;5111970;27;8864;-76
2023/01/16 05:47:59;;;;;;;;;25.20;24.60;;;;;10.92;42.57;98414.25;5108633;28;8881;-76
2023/01/16 05:50:28;;;;;;;;;36.60;30.00;;;;;10.90;43.10;98402.13;5109037;27;8899;-77
2023/01/16 05:52:57;;;;;;;;;34.00;32.80;;;;;10.85;43.03;98394.41;5129029;27;9743;-77
2023/01/16 05:55:28;;;;;;;;;33.40;31.60;;;;;10.95;43.27;98395.09;5123912;27;8852;-76
2023/01/16 05:57:57;;;;;;;;;34.00;32.20;;;;;10.86;42.73;98401.34;5132593;27;8870;-77
2023/01/16 06:00:26;;;;;;;;;30.80;30.20;;;;;10.80;43.37;98401.47;5131570;27;8885;-76
2023/01/16 06:02:55;;;;;;;;;33.60;29.00;;;;;10.87;42.73;98397.84;5110788;27;8873;-78
2023/01/16 06:05:25;;;;;;;;;31.50;28.75;;;;;10.88;43.00;98389.13;5110801;27;8952;-77
2023/01/16 06:07:55;;;;;;;;;37.75;33.00;;;;;10.87;43.11;98379.59;5109239;27;8977;-75
2023/01/16 06:10:25;;;;;;;;;38.60;36.00;;;;;10.92;43.03;98376.88;5107813;27;8847;-75
2023/01/16 06:12:53;;;;;;;;;33.00;30.40;;;;;10.83;42.84;98374.47;5121274;27;8866;-78
2023/01/16 06:15:23;;;;;;;;;30.00;28.20;;;;;10.75;43.25;98374.63;5125941;27;8847;-77
2023/01/16 06:17:53;;;;;;;;;32.80;29.20;;;;;10.70;43.28;98376.47;5094688;27;8883;-79
2023/01/16 06:20:22;;;;;;;;;31.80;27.60;;;;;10.77;43.30;98372.84;5124502;27;8879;-77
2023/01/16 06:22:53;;;;;;;;;33.80;29.80;;;;;10.83;43.32;98372.72;5082107;28;8852;-77
2023/01/16 06:25:21;;;;;;;;;37.25;34.50;;;;;10.87;42.76;98368.31;5097365;28;8846;-78
2023/01/16 06:27:51;;;;;;;;;36.80;31.00;;;;;10.93;42.52;98368.19;5096242;28;8909;-80
2023/01/16 06:30:20;;;;;;;;;30.60;27.20;;;;;10.88;42.82;98365.66;5067263;28;8842;-80
2023/01/16 06:32:50;;;;;;;;;34.60;33.40;;;;;10.79;42.80;98372.81;5074247;28;8939;-80
2023/01/16 06:35:19;;;;;;;;;30.80;28.60;;;;;10.90;42.81;98356.03;5069540;28;8858;-78
2023/01/16 06:37:47;;;;;;;;;35.60;33.00;;;;;10.90;42.80;98352.59;5084980;28;8850;-77
2023/01/16 06:40:19;;;;;;;;;32.00;25.75;;;;;10.90;42.90;98350.81;5038471;28;8916;-78
2023/01/16 06:42:48;;;;;;;;;35.20;33.40;;;;;10.99;42.50;98348.94;5071057;28;8991;-79
2023/01/16 06:45:21;;;;;;;;;31.40;28.80;;;;;11.01;42.16;98339.31;5058642;28;8857;-76
2023/01/16 06:47:54;;;;;;;;;29.20;27.20;;;;;10.93;42.28;98331.66;5084164;28;8858;-78
2023/01/16 06:50:23;;;;;;;;;42.50;36.25;;;;;10.94;42.55;98335.97;5065415;28;9619;-78
2023/01/16 06:52:52;;;;;;;;;34.00;32.80;;;;;10.93;41.88;98335.13;5083940;28;8850;-77
2023/01/16 06:55:22;;;;;;;;;31.40;27.60;;;;;11.05;41.82;98330.53;5083576;28;8843;-80
2023/01/16 06:57:51;;;;;;;;;38.40;32.00;;;;;10.99;41.95;98323.69;5069782;28;8880;-78
2023/01/16 07:00:20;;;;;;;;;33.00;29.20;;;;;10.96;41.64;98322.91;5101196;28;8878;-80
2023/01/16 07:02:54;;;;;;;;;30.60;28.80;;;;;10.99;42.03;98317.63;5105929;28;8879;-78
2023/01/16 07:05:24;;;;;;;;;35.60;32.40;;;;;10.93;41.42;98311.66;5051944;28;8867;-77
2023/01/16 07:07:53;;;;;;;;;35.75;31.00;;;;;11.06;41.90;98314.00;5087957;28;8936;-77
2023/01/16 07:10:24;;;;;;;;;26.40;26.40;;;;;11.11;41.04;98299.06;5099663;28;8840;-81
2023/01/16 07:12:53;;;;;;;;;30.60;26.40;;;;;11.11;41.38;98286.03;5106497;28;8859;-76
2023/01/16 07:23:55;;;;;;;;;27.25;25.25;;;;;10.62;41.92;98271.47;5106025;28;8936;-79
2023/01/16 07:26:26;;;;;;;;;37.25;34.00;;;;;10.57;42.33;98276.81;5106806;28;8851;-76
2023/01/16 07:28:56;;;;;;;;;31.60;28.60;;;;;10.49;42.09;98274.34;5107515;28;8864;-80
2023/01/16 07:31:26;;;;;;;;;33.75;29.25;;;;;10.51;42.37;98269.13;5042351;28;8929;-79
2023/01/16 07:33:55;;;;;;;;;33.20;30.80;;;;;10.49;42.76;98273.47;5056867;28;8887;-78
2023/01/16 07:36:23;;;;;;;;;33.50;29.00;;;;;10.61;43.00;98268.03;5099500;28;8862;-78
2023/01/16 07:38:52;;;;;;;;;32.25;31.00;;;;;10.60;42.49;98278.47;5029413;28;8873;-76
2023/01/16 07:41:21;;;;;;;;;38.50;33.50;;;;;10.62;42.50;98274.09;5086502;28;8857;-75
2023/01/16 07:43:51;;;;;;;;;39.20;30.00;;;;;10.75;42.16;98272.06;5096194;28;8848;-78
2023/01/16 07:46:20;;;;;;;;;34.50;32.00;;;;;10.72;42.21;98257.38;5084818;28;8963;-75
2023/01/16 07:48:51;;;;;;;;;28.50;27.50;;;;;10.86;42.24;98247.47;5089683;28;8851;-78
2023/01/16 07:51:20;;;;;;;;;32.75;29.50;;;;;10.91;42.44;98232.59;5089497;28;8824;-77
2023/01/16 07:53:48;;;;;;;;;32.25;26.50;;;;;10.77;42.27;98241.59;5088497;28;8855;-77
2023/01/16 07:56:17;;;;;;;;;28.25;28.00;;;;;10.85;42.03;98239.69;5105967;28;8837;-79
2023/01/16 07:58:49;;;;;;;;;29.00;27.80;;;;;10.83;41.81;98236.25;5104232;28;8910;-76
2023/01/16 08:01:19;;;;;;;;;36.00;34.00;;;;;10.79;42.15;98247.66;5096247;28;8849;-77
2023/01/16 08:03:48;;;;;;;;;30.60;28.60;;;;;10.98;41.40;98248.94;5105586;28;8856;-78
2023/01/16 08:06:17;;;;;;;;;30.80;27.20;;;;;11.04;41.92;98243.59;5107399;28;8837;-81
2023/01/16 08:08:45;;;;;;;;;34.00;30.25;;;;;11.24;41.06;98247.47;5056921;28;9608;-79
2023/01/16 08:14:12;;;;;;;;;22.60;22.20;;;;;11.40;40.95;98229.66;5026798;28;8906;-77
2023/01/16 08:16:42;;;;;;;;;32.80;26.00;;;;;11.40;40.40;98225.31;5010045;28;8844;-78
2023/01/16 08:19:11;;;;;;;;;29.80;29.20;;;;;11.43;40.94;98213.94;4978167;28;8869;-78
2023/01/16 08:21:40;;;;;;;;;35.20;29.20;;;;;11.30;40.96;98218.59;5023112;28;8843;-78
2023/01/16 08:24:12;;;;;;;;;29.60;26.40;;;;;11.38;41.01;98205.34;5026216;28;8876;-78
2023/01/16 08:26:42;;;;;;;;;29.80;26.80;;;;;11.35;40.97;98208.06;5003522;28;8848;-80
2023/01/16 08:29:11;;;;;;;;;25.20;24.80;;;;;11.30;41.19;98198.59;5026997;28;9641;-76
2023/01/16 08:31:40;;;;;;;;;34.75;29.75;;;;;11.38;41.01;98200.13;4985228;28;1197111;-78
2023/01/16 08:34:10;;;;;;;;;26.60;25.80;;;;;11.29;41.43;98194.28;5010569;28;8868;-77
2023/01/16 08:36:39;;;;;;;;;28.80;26.80;;;;;11.28;41.41;98212.56;4964778;28;8872;-79
2023/01/16 08:39:09;;;;;;;;;24.20;23.40;;;;;11.41;40.93;98215.72;5011557;28;8860;-77
2023/01/16 08:52:49;;;;;;;;;31.20;27.40;;;;;11.80;40.77;98190.34;5039996;28;8867;-80
2023/01/16 08:55:18;;;;;;;;;29.60;26.80;;;;;11.77;41.10;98187.78;5088481;28;8875;-76
2023/01/16 08:57:47;;;;;;;;;35.40;29.60;;;;;11.78;40.98;98168.63;5081941;28;8895;-78
2023/01/16 09:00:18;;;;;;;;;30.40;28.00;;;;;11.84;40.63;98176.28;5089135;28;9584;-77
2023/01/16 09:02:47;;;;;;;;;32.00;30.00;;;;;11.78;41.68;98175.63;5101563;28;8829;-76
2023/01/16 09:05:17;;;;;;;;;32.60;29.20;;;;;11.76;41.36;98175.66;5079056;28;8848;-78
2023/01/16 09:07:46;;;;;;;;;27.20;26.60;;;;;11.78;41.45;98171.25;5090514;28;8824;-78
2023/01/16 09:10:15;;;;;;;;;32.20;27.80;;;;;11.70;41.70;98160.13;5090560;28;8868;-78
2023/01/16 09:15:31;;;;;;;;;30.80;29.00;;;;;11.73;41.92;98164.44;5110392;28;8944;-79
2023/01/16 09:18:01;;;;;;;;;35.00;30.75;;;;;11.75;41.71;98162.63;5110224;27;8860;-76
2023/01/16 09:20:31;;;;;;;;;29.00;27.40;;;;;11.75;41.63;98158.25;5090530;28;8891;-75
2023/01/16 09:23:01;;;;;;;;;33.20;30.80;;;;;11.78;41.85;98146.88;5098605;28;8859;-77
2023/01/16 09:25:31;;;;;;;;;33.00;26.80;;;;;11.77;41.96;98138.16;5055060;28;8939;-79
2023/01/16 09:28:00;;;;;;;;;29.20;26.80;;;;;11.74;41.27;98138.28;5062741;28;8956;-79
2023/01/16 09:30:29;;;;;;;;;31.40;27.40;;;;;11.90;41.81;98136.09;5109510;27;8858;-79
2023/01/16 09:32:58;;;;;;;;;33.50;33.50;;;;;11.96;41.48;98135.91;5129266;27;8843;-79
2023/01/16 09:35:27;;;;;;;;;32.00;27.25;;;;;12.12;41.09;98138.97;5116148;27;8830;-78
2023/01/16 09:37:57;;;;;;;;;31.60;27.60;;;;;12.06;41.68;98126.06;5111861;27;8837;-78
2023/01/16 09:40:26;;;;;;;;;33.40;30.80;;;;;12.03;42.10;98116.56;5117464;27;8865;-82
2023/01/16 09:45:59;;;;;;;;;31.60;28.60;;;;;12.17;41.36;98104.84;5128182;27;8996;-77
2023/01/16 09:48:32;;;;;;;;;36.00;34.75;;;;;12.15;41.44;98098.81;5129676;27;9643;-77
2023/01/16 09:51:06;;;;;;;;;30.20;29.00;;;;;12.19;41.79;98100.41;5139259;27;8854;-80
2023/01/16 09:59:34;;;;;;;;;30.20;28.80;;;;;12.14;42.03;98081.44;5129506;27;8853;-77
2023/01/16 10:02:20;;;;;;;;;30.40;29.00;;;;;12.22;42.47;98071.59;5121486;27;8952;-77
2023/01/16 10:04:50;;;;;;;;;27.60;27.00;;;;;12.15;42.43;98070.91;5128433;27;8837;-78
2023/01/16 10:07:40;;;;;;;;;36.40;32.80;;;;;12.18;42.25;98067.38;5115892;27;8914;-76
2023/01/16 10:10:29;;;;;;;;;37.80;30.40;;;;;12.18;42.51;98062.97;5131831;27;8837;-79
2023/01/16 10:13:09;;;;;;;;;31.00;25.20;;;;;12.25;42.06;98053.22;5092074;27;8845;-76
2023/01/16 10:15:48;;;;;;;;;28.80;27.60;;;;;12.36;42.14;98045.00;5111567;27;8823;-80
2023/01/16 10:18:27;;;;;;;;;22.40;22.00;;;;;12.46;42.10;98033.38;5130922;27;9568;-76
2023/01/16 10:21:20;;;;;;;;;23.20;22.20;;;;;12.37;41.70;98034.50;5053888;28;8847;-78
2023/01/16 10:23:55;;;;;;;;;27.60;25.80;;;;;12.26;42.47;98026.16;5019640;28;8840;-81
2023/01/16 10:26:29;;;;;;;;;32.40;27.20;;;;;12.43;42.68;98030.84;5067958;28;8838;-80
2023/01/16 10:29:16;;;;;;;;;29.00;27.60;;;;;12.37;42.70;98012.75;5085416;28;8877;-79
2023/01/16 10:31:51;;;;;;;;;17.60;16.20;;;;;12.29;42.61;98005.16;5063478;28;8883;-74
2023/01/16 10:34:24;;;;;;;;;20.60;17.80;;;;;12.46;42.69;98002.84;5027014;28;8956;-79
2023/01/16 10:36:57;;;;;;;;;20.60;20.00;;;;;12.36;42.14;97998.84;5065553;28;8974;-79
2023/01/16 10:39:32;;;;;;;;;22.00;21.40;;;;;12.44;43.21;97982.91;5047981;28;8857;-73
2023/01/16 10:50:47;;;;;;;;;23.60;22.60;;;;;12.41;44.09;97983.81;5064326;28;8867;-80
2023/01/16 10:53:16;;;;;;;;;23.40;20.40;;;;;12.43;43.46;97983.78;5105180;28;8864;-75
2023/01/16 10:55:48;;;;;;;;;27.20;23.80;;;;;12.41;43.65;97965.53;5110102;28;9027;-77
2023/01/16 10:58:25;;;;;;;;;25.80;24.00;;;;;12.35;43.92;97957.06;5109580;28;8838;-77
2023/01/16 11:00:59;;;;;;;;;24.00;23.20;;;;;12.26;43.09;97955.59;5109876;28;8919;-79
2023/01/16 11:03:34;;;;;;;;;25.20;22.40;;;;;12.26;44.08;97939.91;5108802;28;8963;-77
2023/01/16 11:06:13;;;;;;;;;21.40;21.40;;;;;12.25;43.40;97946.91;5106122;28;8899;-77
2023/01/16 11:08:43;;;;;;;;;23.00;22.60;;;;;12.12;43.49;97935.16;5107983;28;8842;-78
2023/01/16 11:19:42;;;;;;;;;21.60;20.80;;;;;12.34;44.18;97921.34;5064040;28;8865;-77
2023/01/16 11:22:24;;;;;;;;;23.20;22.00;;;;;12.21;44.56;97913.06;5040262;28;8871;-77
2023/01/16 11:24:57;;;;;;;;;29.40;23.60;;;;;12.07;44.92;97895.25;5066149;28;8949;-78
2023/01/16 11:27:29;;;;;;;;;26.00;23.40;;;;;12.01;44.83;97895.44;5034079;28;8864;-78
2023/01/16 11:30:09;;;;;;;;;29.80;26.40;;;;;12.01;45.46;97882.38;5053523;28;8915;-77
2023/01/16 11:32:47;;;;;;;;;26.60;25.80;;;;;11.96;45.15;97882.53;5040236;28;8970;-76
2023/01/16 11:35:18;;;;;;;;;25.00;25.00;;;;;12.03;45.53;97875.34;5027456;28;9522;-80
2023/01/16 11:37:51;;;;;;;;;29.60;28.20;;;;;11.90;46.19;97880.97;5027335;28;8872;-77
2023/01/16 11:40:23;;;;;;;;;26.00;23.40;;;;;11.77;45.93;97877.03;5009975;28;8868;-80
2023/01/16 11:46:05;;;;;;;;;29.20;24.20;;;;;11.85;45.82;97874.16;5030104;28;8887;-76
2023/01/16 11:48:42;;;;;;;;;30.40;28.40;;;;;11.82;46.07;97863.84;4980542;28;8884;-79
2023/01/16 11:51:14;;;;;;;;;29.00;28.60;;;;;11.73;46.63;97848.47;4991127;28;8853;-79
2023/01/16 11:53:45;;;;;;;;;27.80;25.80;;;;;11.76;45.94;97856.16;5030122;28;9006;-75
2023/01/16 11:56:36;;;;;;;;;31.80;27.20;;;;;11.96;45.74;97845.09;5029597;28;9512;-78
2023/01/16 11:59:31;;;;;;;;;31.60;26.40;;;;;11.92;45.58;97844.34;5000174;28;8902;-76
2023/01/16 12:02:18;;;;;;;;;22.60;21.80;;;;;11.82;46.29;97845.53;5028962;28;8865;-77
2023/01/16 12:07:50;;;;;;;;;27.00;25.00;;;;;11.77;45.99;97803.06;5070680;28;8860;-76
2023/01/16 12:10:38;;;;;;;;;31.00;27.40;;;;;11.78;46.73;97812.59;5060143;28;8867;-79
2023/01/16 12:16:07;;;;;;;;;24.00;22.20;;;;;11.75;46.44;97802.25;5055984;28;8856;-80
2023/01/16 12:18:48;;;;;;;;;31.80;26.20;;;;;11.77;46.31;97803.91;5076210;28;8841;-78
2023/01/16 12:21:30;;;;;;;;;30.40;26.60;;;;;11.84;46.36;97808.00;5079303;28;8840;-74
2023/01/16 12:24:11;;;;;;;;;30.00;25.20;;;;;11.80;46.00;97793.38;5092284;28;8878;-82
2023/01/16 12:26:51;;;;;;;;;36.00;31.80;;;;;11.79;45.72;97812.53;5100512;28;8861;-74
2023/01/16 12:29:30;;;;;;;;;30.60;28.00;;;;;11.80;46.60;97811.63;5095167;28;8871;-76
2023/01/16 12:32:19;;;;;;;;;26.20;25.60;;;;;11.78;46.30;97803.00;5090740;28;8868;-78
2023/01/16 12:35:21;;;;;;;;;28.00;26.00;;;;;11.86;46.09;97789.69;5106165;28;8867;-78
2023/01/16 12:38:05;;;;;;;;;34.40;28.20;;;;;11.83;46.35;97772.38;5029909;28;8940;-79
2023/01/16 12:40:51;;;;;;;;;26.20;26.20;;;;;11.87;46.52;97749.59;5053022;28;9028;-80
2023/01/16 12:43:33;;;;;;;;;25.00;22.80;;;;;11.80;46.49;97753.34;5035180;28;8835;-75
2023/01/16 12:46:09;;;;;;;;;26.20;24.60;;;;;11.85;46.58;97770.56;5048337;28;8900;-78
2023/01/16 12:49:01;;;;;;;;;33.60;28.00;;;;;11.94;46.30;97761.56;5053757;28;8863;-77
2023/01/16 12:51:42;;;;;;;;;34.20;28.00;;;;;11.90;46.68;97771.25;5034346;28;8921;-78
2023/01/16 12:54:31;;;;;;;;;29.00;26.40;;;;;11.85;46.31;97754.88;5035514;28;8850;-76
2023/01/16 12:57:16;;;;;;;;;27.80;25.00;;;;;11.95;46.13;97759.84;5038012;28;8839;-80